Time;durP1;ratioP1;P1;durP2;ratioP2;P2;SDS_P1;SDS_P2;PMS_P1;PMS_P2;Temp;Humidity;BMP_temperature;BMP_pressure;BME280_temperature;BME280_humidity;BME280_pressure;Samples;Min_cycle;Max_cycle;Signal;HPM_P1;HPM_P2
2023/03/24 00:01:24;;;;;;;14.73;6.05;;;;;;;10.76;70.44;101298.52;1869720;77;21042;-41
2023/03/24 00:03:53;;;;;;;16.07;6.90;;;;;;;10.79;70.30;101299.74;1869148;77;21022;-42
2023/03/24 00:06:22;;;;;;;17.52;7.42;;;;;;;10.80;70.31;101296.18;1869744;77;21014;-40
2023/03/24 00:08:51;;;;;;;15.40;6.37;;;;;;;10.81;70.28;101299.23;1869015;77;21038;-41
2023/03/24 00:11:20;;;;;;;10.58;5.65;;;;;;;10.82;70.25;101298.77;1865489;77;21070;-41
2023/03/24 00:13:49;;;;;;;14.47;5.70;;;;;;;10.83;70.35;101299.20;1854606;77;21547;-40
2023/03/24 00:16:20;;;;;;;16.23;5.95;;;;;;;10.84;70.46;101293.46;1868557;77;21184;-41
2023/03/24 00:18:51;;;;;;;14.98;5.92;;;;;;;10.84;70.45;101289.05;1867518;77;21061;-40
2023/03/24 00:21:27;;;;;;;11.38;5.40;;;;;;;10.86;70.46;101289.86;1859934;76;21090;-41
2023/03/24 00:23:57;;;;;;;17.42;7.17;;;;;;;10.87;70.46;101287.64;1851011;77;21050;-41
2023/03/24 00:26:25;;;;;;;13.78;5.60;;;;;;;10.89;70.48;101283.65;1851935;77;21140;-40
2023/03/24 00:28:55;;;;;;;15.10;6.37;;;;;;;10.91;70.41;101280.05;1852195;76;21477;-40
2023/03/24 00:31:26;;;;;;;12.23;5.60;;;;;;;10.92;70.43;101276.52;1851930;77;21117;-40
2023/03/24 00:33:55;;;;;;;12.33;5.62;;;;;;;10.91;70.46;101281.83;1829885;77;21076;-41
2023/03/24 00:36:27;;;;;;;14.28;6.05;;;;;;;10.88;70.61;101283.23;1821548;79;21119;-40
2023/03/24 00:38:56;;;;;;;11.63;5.33;;;;;;;10.84;70.86;101277.19;1823505;77;21111;-40
2023/03/24 00:41:26;;;;;;;10.30;6.20;;;;;;;10.84;70.82;101271.92;1821500;79;21620;-39
2023/03/24 00:43:57;;;;;;;14.15;6.00;;;;;;;10.85;70.79;101273.66;1821603;79;21526;-39
2023/03/24 00:46:27;;;;;;;13.38;6.67;;;;;;;10.84;70.75;101271.92;1821795;77;21115;-39
2023/03/24 00:49:02;;;;;;;22.02;9.25;;;;;;;10.85;70.66;101275.44;1827229;77;21200;-39
2023/03/24 00:51:33;;;;;;;20.50;10.00;;;;;;;10.85;70.64;101271.49;1851660;77;21152;-39
2023/03/24 00:54:02;;;;;;;16.10;8.90;;;;;;;10.85;70.64;101267.54;1849712;77;21078;-39
2023/03/24 00:56:34;;;;;;;16.30;7.53;;;;;;;10.86;70.64;101269.25;1847112;76;21465;-39
2023/03/24 00:59:04;;;;;;;12.25;6.92;;;;;;;10.86;70.75;101271.88;1827168;77;21074;-40
2023/03/24 01:01:36;;;;;;;11.65;6.05;;;;;;;10.84;70.77;101281.61;1851729;77;21535;-39
2023/03/24 01:04:06;;;;;;;13.70;7.17;;;;;;;10.77;70.89;101285.77;1851793;77;21022;-39
2023/03/24 01:06:36;;;;;;;11.83;6.28;;;;;;;10.73;71.01;101284.11;1839511;77;21157;-39
2023/03/24 01:09:07;;;;;;;14.70;6.00;;;;;;;10.74;70.96;101283.67;1822083;77;21011;-41
2023/03/24 01:11:40;;;;;;;12.50;6.15;;;;;;;10.73;71.01;101279.30;1830073;77;21492;-41
2023/03/24 01:14:09;;;;;;;11.00;5.08;;;;;;;10.72;71.12;101269.70;1842612;77;21066;-41
2023/03/24 01:16:38;;;;;;;13.25;6.00;;;;;;;10.72;71.18;101265.74;1842271;77;21465;-42
2023/03/24 01:19:08;;;;;;;12.73;4.90;;;;;;;10.70;71.33;101260.52;1851838;77;21062;-41
2023/03/24 01:21:38;;;;;;;8.83;4.30;;;;;;;10.69;71.43;101261.41;1830091;77;21579;-41
2023/03/24 01:24:07;;;;;;;10.82;5.12;;;;;;;10.70;71.50;101265.79;1860049;77;21145;-41
2023/03/24 01:26:36;;;;;;;8.60;3.47;;;;;;;10.67;71.60;101257.97;1860318;77;21097;-41
2023/03/24 01:29:05;;;;;;;9.15;4.03;;;;;;;10.70;71.53;101269.73;1849972;77;21045;-41
2023/03/24 01:31:34;;;;;;;9.08;3.62;;;;;;;10.72;71.40;101272.33;1829829;77;21061;-41
2023/03/24 01:34:03;;;;;;;9.13;3.40;;;;;;;10.74;71.31;101275.77;1838860;77;21509;-41
2023/03/24 01:36:32;;;;;;;8.88;2.90;;;;;;;10.76;71.18;101284.48;1860343;77;21574;-42
2023/03/24 01:39:01;;;;;;;8.28;3.15;;;;;;;10.77;71.05;101284.45;1853066;77;21073;-41
2023/03/24 01:41:33;;;;;;;7.08;3.10;;;;;;;10.79;70.90;101279.98;1829818;77;21148;-40
2023/03/24 01:44:03;;;;;;;5.87;3.12;;;;;;;10.79;70.75;101283.94;1831878;77;21062;-41
2023/03/24 01:46:33;;;;;;;6.30;3.75;;;;;;;10.80;70.59;101288.28;1856418;77;21075;-90
2023/03/24 01:49:07;;;;;;;6.05;2.90;;;;;;;10.82;70.49;101289.09;1860136;77;21570;-41
2023/03/24 01:51:42;;;;;;;7.72;3.02;;;;;;;10.81;70.46;101300.55;1843756;77;21057;-41
2023/03/24 01:54:32;;;;;;;5.78;2.80;;;;;;;10.83;70.32;101300.52;1858451;77;21254;-41
2023/03/24 01:57:05;;;;;;;6.12;3.15;;;;;;;10.84;70.22;101298.27;1851560;77;21540;-41
2023/03/24 01:59:38;;;;;;;7.03;2.90;;;;;;;10.86;70.14;101300.86;1842243;77;21550;-41
2023/03/24 02:02:13;;;;;;;7.08;2.90;;;;;;;10.86;70.08;101299.54;1844094;77;21140;-39
2023/03/24 02:04:47;;;;;;;6.05;3.22;;;;;;;10.89;69.90;101302.09;1834707;76;21144;-40
2023/03/24 02:07:21;;;;;;;5.15;3.08;;;;;;;10.92;69.72;101300.66;1829704;78;21057;-44
2023/03/24 02:09:50;;;;;;;7.22;2.95;;;;;;;10.93;69.60;101303.25;1848267;77;21034;-40
2023/03/24 02:12:19;;;;;;;7.58;3.17;;;;;;;10.92;69.50;101302.86;1857245;77;21163;-40
2023/03/24 02:14:49;;;;;;;6.70;2.92;;;;;;;10.90;69.45;101299.41;1845994;77;21472;-40
2023/03/24 02:17:43;;;;;;;8.70;3.55;;;;;;;10.88;69.44;101294.66;1860650;77;21554;-40
2023/03/24 02:20:24;;;;;;;4.95;2.00;;;;;;;10.87;69.35;101298.64;1835307;77;21040;-41
2023/03/24 02:23:22;;;;;;;6.35;3.27;;;;;;;10.86;69.25;101303.50;1829154;77;21075;-40
2023/03/24 02:26:10;;;;;;;6.83;3.00;;;;;;;10.84;69.19;101307.95;1829706;78;21058;-39
2023/03/24 02:28:42;;;;;;;3.08;2.22;;;;;;;10.80;69.24;101311.98;1849840;77;21140;-42
2023/03/24 02:31:32;;;;;;;5.50;2.90;;;;;;;10.81;69.22;101315.51;1864039;76;21144;-40
2023/03/24 02:34:06;;;;;;;9.43;2.58;;;;;;;10.81;69.22;101317.67;1860755;77;21070;-41
2023/03/24 02:37:03;;;;;;;7.25;3.35;;;;;;;10.79;69.24;101322.13;1860576;77;21038;-38
2023/03/24 02:39:53;;;;;;;5.72;2.35;;;;;;;10.79;69.23;101329.19;1859793;77;21054;-40
2023/03/24 02:42:36;;;;;;;6.05;3.20;;;;;;;10.79;69.18;101331.81;1807501;77;21591;-40
2023/03/24 02:45:23;;;;;;;6.22;2.90;;;;;;;10.79;69.20;101330.50;1860669;77;21469;-40
2023/03/24 02:48:10;;;;;;;8.30;3.42;;;;;;;10.75;69.25;101331.05;1796917;77;21094;-41
2023/03/24 02:51:05;;;;;;;7.55;3.40;;;;;;;10.75;69.25;101327.09;1843890;77;21061;-42
2023/03/24 02:54:12;;;;;;;10.58;3.83;;;;;;;10.75;69.22;101334.11;1856362;77;21513;-42
2023/03/24 02:56:49;;;;;;;6.62;3.02;;;;;;;10.76;69.11;101331.90;1803928;78;21205;-41
2023/03/24 02:59:36;;;;;;;5.78;2.45;;;;;;;10.73;69.21;101328.88;1807823;78;21563;-44
2023/03/24 03:02:18;;;;;;;8.43;3.90;;;;;;;10.70;69.36;101335.59;1867435;76;21139;-44
2023/03/24 03:04:51;;;;;;;7.90;4.20;;;;;;;10.66;69.39;101337.91;1888909;73;21045;-41
2023/03/24 03:07:23;;;;;;;7.00;3.37;;;;;;;10.68;69.28;101342.67;1898550;74;21470;-46
2023/03/24 03:10:04;;;;;;;5.60;3.42;;;;;;;10.67;69.35;101347.52;1892366;75;21003;-45
2023/03/24 03:12:37;;;;;;;10.98;3.08;;;;;;;10.67;69.35;101352.78;1902361;74;21112;-40
2023/03/24 03:15:08;;;;;;;8.03;3.37;;;;;;;10.68;69.26;101357.16;1876043;75;21025;-40
2023/03/24 03:17:40;;;;;;;5.60;3.42;;;;;;;10.70;69.17;101356.66;1894322;75;21185;-41
2023/03/24 03:20:15;;;;;;;9.35;3.60;;;;;;;10.71;69.16;101359.67;1884219;75;21092;-46
2023/03/24 03:22:46;;;;;;;6.60;3.12;;;;;;;10.71;69.18;101357.51;1922750;74;21471;-48
2023/03/24 03:25:19;;;;;;;10.65;3.27;;;;;;;10.70;69.13;101364.55;1934029;73;21103;-48
2023/03/24 03:27:48;;;;;;;7.42;3.60;;;;;;;10.69;69.11;101365.45;1895193;75;21186;-47
2023/03/24 03:30:36;;;;;;;6.37;3.55;;;;;;;10.70;69.06;101366.34;1898421;74;21494;-40
2023/03/24 03:33:08;;;;;;;7.30;3.80;;;;;;;10.68;69.12;101370.33;1930871;74;21110;-39
2023/03/24 03:35:39;;;;;;;8.80;4.15;;;;;;;10.65;69.28;101376.98;1935904;73;21053;-40
2023/03/24 03:38:17;;;;;;;6.20;2.42;;;;;;;10.62;69.31;101375.32;1906075;75;21041;-40
2023/03/24 03:40:58;;;;;;;4.20;2.52;;;;;;;10.59;69.46;101374.55;1900001;75;21057;-40
2023/03/24 03:43:30;;;;;;;4.10;2.02;;;;;;;10.58;69.48;101375.44;1905658;75;21502;-38
2023/03/24 03:46:01;;;;;;;5.25;2.80;;;;;;;10.56;69.59;101377.25;1905958;75;21064;-38
2023/03/24 03:48:32;;;;;;;6.97;2.30;;;;;;;10.55;69.50;101380.35;1919361;74;21041;-38
2023/03/24 03:51:01;;;;;;;8.25;3.42;;;;;;;10.57;69.38;101382.95;1939696;74;21468;-41
2023/03/24 03:53:42;;;;;;;8.03;2.90;;;;;;;10.56;69.41;101382.52;1939751;73;21480;-37
2023/03/24 03:56:11;;;;;;;5.08;2.10;;;;;;;10.55;69.37;101385.63;1939745;74;21032;-40
2023/03/24 03:58:42;;;;;;;4.72;1.65;;;;;;;10.57;69.21;101386.90;1938582;74;21127;-37
2023/03/24 04:01:20;;;;;;;4.60;2.60;;;;;;;10.57;68.98;101392.16;1939678;73;21106;-39
2023/03/24 04:04:32;;;;;;;6.35;3.12;;;;;;;10.57;68.96;101390.39;1936380;74;21103;-38
2023/03/24 04:07:19;;;;;;;3.90;1.98;;;;;;;10.58;68.91;101392.55;1938189;74;21092;-37
2023/03/24 04:09:55;;;;;;;5.72;2.67;;;;;;;10.59;68.71;101403.52;1939605;74;21073;-39
2023/03/24 04:12:35;;;;;;;3.72;2.08;;;;;;;10.60;68.69;101402.59;1939002;74;21480;-35
2023/03/24 04:15:15;;;;;;;12.35;3.50;;;;;;;10.61;68.52;101404.33;1936255;73;21077;-37
2023/03/24 04:18:21;;;;;;;6.72;2.70;;;;;;;10.64;68.39;101405.53;1938724;74;21439;-38
2023/03/24 04:21:01;;;;;;;12.90;3.90;;;;;;;10.68;68.35;101412.47;1939033;74;21096;-37
2023/03/24 04:23:48;;;;;;;7.37;3.58;;;;;;;10.70;68.39;101414.59;1933206;74;21053;-37
2023/03/24 04:26:25;;;;;;;8.78;2.67;;;;;;;10.70;68.40;101413.28;1894210;74;21025;-38
2023/03/24 04:28:57;;;;;;;7.10;3.10;;;;;;;10.75;68.33;101420.61;1884337;75;21069;-37
2023/03/24 04:31:36;;;;;;;7.53;3.75;;;;;;;10.75;68.33;101421.92;1892133;74;21148;-40
2023/03/24 04:34:08;;;;;;;5.80;3.22;;;;;;;10.75;68.39;101425.88;1891816;76;21037;-39
2023/03/24 04:36:49;;;;;;;8.08;3.40;;;;;;;10.76;68.37;101428.05;1892748;74;21060;-36
2023/03/24 04:39:26;;;;;;;8.08;2.80;;;;;;;10.78;68.38;101432.34;1875774;74;21070;-36
2023/03/24 04:41:56;;;;;;;7.55;3.67;;;;;;;10.78;68.33;101438.94;1891562;76;21057;-36
2023/03/24 04:44:29;;;;;;;7.05;2.90;;;;;;;10.79;68.26;101439.36;1892283;74;21605;-41
2023/03/24 04:47:12;;;;;;;6.47;3.83;;;;;;;10.81;68.23;101443.27;1892878;74;21078;-39
2023/03/24 04:49:42;;;;;;;12.63;4.35;;;;;;;10.81;68.18;101445.91;1892502;74;21064;-38
2023/03/24 04:52:11;;;;;;;6.17;3.42;;;;;;;10.85;68.17;101450.64;1891830;76;21053;-39
2023/03/24 04:54:41;;;;;;;9.68;3.65;;;;;;;10.89;68.08;101450.48;1891544;76;21503;-40
2023/03/24 04:57:10;;;;;;;9.75;3.80;;;;;;;10.91;68.03;101445.17;1891707;76;21109;-38
2023/03/24 04:59:47;;;;;;;6.35;2.72;;;;;;;10.90;68.05;101448.70;1892021;74;21503;-37
2023/03/24 05:02:16;;;;;;;6.25;2.45;;;;;;;10.93;68.01;101442.05;1837447;78;21057;-37
2023/03/24 05:04:52;;;;;;;7.45;2.77;;;;;;;10.98;67.89;101446.73;1860756;77;21164;-39
2023/03/24 05:07:26;;;;;;;6.47;1.72;;;;;;;10.98;67.82;101442.77;1870623;74;21052;-38
2023/03/24 05:09:56;;;;;;;4.12;1.65;;;;;;;11.01;67.66;101447.93;1870559;74;21133;-39
2023/03/24 05:12:25;;;;;;;5.60;2.22;;;;;;;11.06;67.49;101446.03;1860586;77;21055;-39
2023/03/24 05:15:12;;;;;;;8.60;2.60;;;;;;;11.09;67.45;101455.17;1870017;76;21191;-36
2023/03/24 05:17:41;;;;;;;4.87;1.52;;;;;;;11.13;67.18;101458.59;1860121;77;21492;-36
2023/03/24 05:20:10;;;;;;;5.67;2.22;;;;;;;11.16;67.08;101463.31;1869907;77;21017;-36
2023/03/24 05:22:41;;;;;;;8.38;2.60;;;;;;;11.18;66.89;101462.81;1870105;77;21033;-36
2023/03/24 05:25:10;;;;;;;3.25;1.57;;;;;;;11.22;66.70;101466.69;1847559;77;21554;-41
2023/03/24 05:27:38;;;;;;;5.20;2.22;;;;;;;11.24;66.56;101467.03;1899249;75;21635;-40
2023/03/24 05:30:10;;;;;;;4.35;2.02;;;;;;;11.28;66.31;101469.12;1901262;75;21634;-39
2023/03/24 05:32:39;;;;;;;5.55;2.02;;;;;;;11.33;66.16;101469.85;1903072;75;21142;-40
2023/03/24 05:35:08;;;;;;;5.85;2.83;;;;;;;11.36;65.82;101469.73;1902796;75;21104;-37
2023/03/24 05:37:37;;;;;;;6.85;1.60;;;;;;;11.41;65.76;101478.38;1899098;75;21521;-37
2023/03/24 05:40:07;;;;;;;8.78;2.17;;;;;;;11.51;65.74;101479.83;1902921;75;21088;-37
2023/03/24 05:42:52;;;;;;;10.25;2.80;;;;;;;11.65;65.66;101483.80;1902392;75;21214;-40
2023/03/24 05:45:23;;;;;;;3.83;1.82;;;;;;;11.74;65.44;101480.41;1902901;75;21135;-39
2023/03/24 05:47:52;;;;;;;5.10;1.95;;;;;;;11.84;64.79;101486.27;1899294;75;21130;-39
2023/03/24 05:50:23;;;;;;;7.12;2.40;;;;;;;11.94;64.77;101486.86;1901878;75;21067;-39
2023/03/24 05:52:52;;;;;;;9.25;2.85;;;;;;;12.09;64.08;101485.48;1903210;75;21610;-39
2023/03/24 05:55:26;;;;;;;8.40;1.90;;;;;;;12.27;64.19;101479.58;1897360;75;21092;-40
2023/03/24 05:57:56;;;;;;;2.52;1.20;;;;;;;12.51;63.40;101481.83;1898685;75;21499;-39
2023/03/24 06:00:37;;;;;;;2.10;1.00;;;;;;;12.80;62.91;101477.72;1901577;75;21041;-38
2023/03/24 06:03:07;;;;;;;2.92;1.50;;;;;;;13.04;61.85;101482.13;1902597;75;21605;-39
2023/03/24 06:05:37;;;;;;;3.47;1.75;;;;;;;13.39;61.21;101490.97;1901685;75;21072;-39
2023/03/24 06:08:08;;;;;;;6.35;1.98;;;;;;;13.80;61.11;101481.41;1899365;75;21016;-39
2023/03/24 06:10:37;;;;;;;2.77;1.87;;;;;;;14.31;60.53;101491.66;1870678;76;21581;-39
2023/03/24 06:13:07;;;;;;;3.20;1.60;;;;;;;14.79;59.71;101487.82;1870630;77;21153;-39
2023/03/24 06:15:38;;;;;;;3.33;1.47;;;;;;;15.15;57.13;101487.09;1897501;75;21045;-38
2023/03/24 06:18:08;;;;;;;8.23;2.08;;;;;;;15.52;56.90;101482.70;1900850;75;21527;-38
2023/03/24 06:20:37;;;;;;;3.33;1.47;;;;;;;15.89;55.70;101482.27;1854064;75;21070;-38
2023/03/24 06:23:08;;;;;;;3.02;1.40;;;;;;;16.14;55.69;101490.73;1849513;77;21146;-39
2023/03/24 06:25:43;;;;;;;2.27;1.40;;;;;;;16.48;55.51;101491.66;1855445;77;21161;-38
2023/03/24 06:28:12;;;;;;;4.12;1.60;;;;;;;16.90;55.44;101486.38;1860845;77;21632;-39
2023/03/24 06:30:45;;;;;;;3.80;1.40;;;;;;;17.04;54.53;101484.77;1861806;76;21118;-39
2023/03/24 06:33:16;;;;;;;7.72;1.80;;;;;;;17.44;55.05;101489.23;1861947;77;21444;-41
2023/03/24 06:35:45;;;;;;;2.90;1.60;;;;;;;17.67;54.48;101493.24;1862135;77;21503;-40
2023/03/24 06:38:15;;;;;;;3.67;1.80;;;;;;;17.67;51.42;101486.13;1861988;77;21102;-40
2023/03/24 06:40:44;;;;;;;4.33;2.08;;;;;;;17.71;51.31;101492.14;1864392;76;21508;-40
2023/03/24 06:43:13;;;;;;;5.83;1.80;;;;;;;17.63;50.71;101487.71;1862036;77;21010;-40
2023/03/24 06:45:44;;;;;;;5.20;1.95;;;;;;;17.35;49.74;101479.50;1862113;77;21532;-38
2023/03/24 06:48:14;;;;;;;2.58;1.50;;;;;;;16.97;48.96;101485.11;1861819;77;21106;-38
2023/03/24 06:50:44;;;;;;;10.30;1.92;;;;;;;17.01;49.84;101497.78;1864381;76;21132;-38
2023/03/24 06:53:12;;;;;;;3.65;1.52;;;;;;;17.24;49.80;101497.84;1862127;77;21051;-41
2023/03/24 06:55:42;;;;;;;4.10;2.30;;;;;;;17.45;49.84;101502.94;1862259;77;21150;-38
2023/03/24 06:58:13;;;;;;;4.17;1.90;;;;;;;17.50;48.83;101506.19;1862115;77;21524;-39
2023/03/24 07:01:01;;;;;;;4.60;2.70;;;;;;;17.34;48.50;101500.39;1829493;76;21635;-38
2023/03/24 07:03:31;;;;;;;6.70;1.67;;;;;;;17.39;48.30;101498.79;1856355;76;21061;-39
2023/03/24 07:06:06;;;;;;;4.80;1.92;;;;;;;17.61;48.86;101501.11;1869201;74;21286;-40
2023/03/24 07:08:35;;;;;;;5.12;2.10;;;;;;;17.88;48.36;101512.52;1894364;76;21116;-38
2023/03/24 07:11:05;;;;;;;5.03;2.50;;;;;;;18.22;47.79;101501.20;1894262;76;21050;-38
2023/03/24 07:13:34;;;;;;;6.33;2.67;;;;;;;18.37;48.12;101505.65;1891812;76;21023;-37
2023/03/24 07:16:05;;;;;;;4.25;2.27;;;;;;;18.25;47.73;101509.88;1894164;75;21080;-37
2023/03/24 07:18:34;;;;;;;6.00;2.52;;;;;;;17.94;47.27;101502.38;1894339;74;21032;-37
2023/03/24 07:21:06;;;;;;;4.60;2.02;;;;;;;17.66;47.59;101511.03;1866650;76;21106;-37
2023/03/24 07:23:36;;;;;;;3.50;2.45;;;;;;;17.31;48.09;101513.86;1862208;77;21046;-37
2023/03/24 07:26:12;;;;;;;8.43;3.52;;;;;;;17.01;48.68;101510.23;1845423;77;21122;-37
2023/03/24 07:28:46;;;;;;;22.30;3.30;;;;;;;16.88;49.07;101508.22;1866523;75;21062;-37
2023/03/24 07:31:16;;;;;;;5.12;2.35;;;;;;;16.57;49.32;101507.61;1829570;78;21544;-37
2023/03/24 07:33:47;;;;;;;4.08;2.42;;;;;;;16.39;49.78;101516.05;1829662;78;21151;-37
2023/03/24 07:36:15;;;;;;;5.47;2.33;;;;;;;16.07;50.34;101507.91;1829753;78;21018;-37
2023/03/24 07:38:44;;;;;;;5.00;2.70;;;;;;;15.94;50.74;101506.34;1832753;76;21025;-37
2023/03/24 07:41:14;;;;;;;4.92;2.50;;;;;;;16.13;51.05;101502.77;1866392;75;21057;-42
2023/03/24 07:43:44;;;;;;;4.65;2.70;;;;;;;16.44;50.96;101509.19;1829628;77;21159;-39
2023/03/24 07:46:25;;;;;;;7.92;2.77;;;;;;;16.55;50.67;101509.48;1829656;78;21066;-37
2023/03/24 07:48:54;;;;;;;7.08;2.80;;;;;;;16.68;50.36;101507.91;1832671;76;21025;-39
2023/03/24 07:51:23;;;;;;;3.62;2.00;;;;;;;16.93;50.15;101512.83;1829729;78;21567;-39
2023/03/24 07:53:53;;;;;;;5.47;2.80;;;;;;;17.14;49.89;101519.26;1829879;76;21143;-40
2023/03/24 07:56:24;;;;;;;6.30;2.77;;;;;;;17.12;49.77;101521.15;1829636;78;21139;-39
2023/03/24 07:58:56;;;;;;;5.10;2.95;;;;;;;17.00;49.74;101518.66;1832598;76;21124;-39
2023/03/24 08:01:26;;;;;;;6.47;3.37;;;;;;;16.73;50.10;101515.66;1863012;75;21128;-39
2023/03/24 08:03:55;;;;;;;4.47;3.00;;;;;;;16.54;50.43;101515.28;1871942;76;21564;-38
2023/03/24 08:06:45;;;;;;;3.25;2.45;;;;;;;16.46;50.92;101512.63;1875322;76;21067;-37
2023/03/24 08:09:15;;;;;;;5.60;2.52;;;;;;;16.14;50.99;101509.34;1875277;76;21043;-38
2023/03/24 08:11:43;;;;;;;8.80;3.37;;;;;;;15.73;51.49;101502.92;1875644;76;21509;-38
2023/03/24 08:14:12;;;;;;;7.10;3.25;;;;;;;15.52;52.08;101518.53;1842250;76;21033;-38
2023/03/24 08:16:41;;;;;;;9.40;3.37;;;;;;;15.41;52.38;101513.73;1829642;78;21081;-37
2023/03/24 08:19:09;;;;;;;6.42;2.50;;;;;;;15.27;52.92;101510.85;1829527;78;21125;-37
2023/03/24 08:21:38;;;;;;;4.35;2.10;;;;;;;15.23;53.11;101517.65;1829626;78;21042;-38
2023/03/24 08:24:07;;;;;;;7.58;3.33;;;;;;;15.14;53.23;101508.79;1832767;76;21013;-37
2023/03/24 08:26:35;;;;;;;5.72;2.92;;;;;;;14.95;53.59;101512.72;1829605;78;21057;-37
2023/03/24 08:29:04;;;;;;;8.60;3.15;;;;;;;14.95;53.73;101507.42;1829592;78;21057;-38
2023/03/24 08:31:37;;;;;;;6.75;3.30;;;;;;;14.96;53.75;101514.45;1829564;78;21416;-38
2023/03/24 08:34:10;;;;;;;11.95;4.70;;;;;;;14.88;53.70;101505.11;1844267;75;21140;-38
2023/03/24 08:36:37;;;;;;;6.67;4.17;;;;;;;14.90;53.76;101497.95;1892229;75;21032;-38
2023/03/24 08:39:09;;;;;;;7.90;2.92;;;;;;;14.85;53.97;101512.75;1908027;75;21058;-37
2023/03/24 08:41:36;;;;;;;5.75;3.08;;;;;;;14.96;54.03;101500.34;1879571;75;21073;-38
2023/03/24 08:44:06;;;;;;;8.38;3.75;;;;;;;14.89;54.04;101506.85;1874587;75;21050;-36
2023/03/24 08:46:35;;;;;;;7.00;3.70;;;;;;;14.66;54.43;101506.95;1874680;76;21105;-36
2023/03/24 08:49:04;;;;;;;8.30;3.45;;;;;;;14.66;54.75;101493.69;1874676;76;21051;-37
2023/03/24 08:51:33;;;;;;;6.87;3.75;;;;;;;14.80;54.68;101493.06;1875506;76;21486;-36
2023/03/24 08:54:02;;;;;;;5.90;3.35;;;;;;;15.20;54.53;101503.66;1889068;75;21457;-36
2023/03/24 08:56:31;;;;;;;6.65;2.45;;;;;;;15.41;53.80;101501.79;1907970;75;21493;-37
2023/03/24 08:58:59;;;;;;;8.15;3.10;;;;;;;15.48;53.63;101507.20;1873189;75;21010;-36
2023/03/24 09:01:28;;;;;;;7.40;3.37;;;;;;;15.52;53.41;101507.45;1851445;75;21027;-38
2023/03/24 09:03:57;;;;;;;7.60;3.77;;;;;;;15.59;53.25;101497.41;1893720;75;21058;-38
2023/03/24 09:06:26;;;;;;;7.55;4.05;;;;;;;15.86;52.81;101497.02;1907964;75;21047;-37
2023/03/24 09:08:55;;;;;;;8.00;3.58;;;;;;;16.19;51.81;101495.80;1877318;75;21071;-37
2023/03/24 09:11:24;;;;;;;9.95;4.05;;;;;;;16.01;51.92;101499.79;1875406;76;21071;-39
2023/03/24 09:13:52;;;;;;;8.03;3.52;;;;;;;16.02;52.13;101495.33;1889432;75;21044;-38
2023/03/24 09:16:22;;;;;;;9.15;3.75;;;;;;;15.91;51.90;101495.86;1899223;75;21530;-39
2023/03/24 09:18:51;;;;;;;10.32;3.98;;;;;;;15.97;51.95;101495.57;1904810;75;21082;-40
2023/03/24 09:21:20;;;;;;;7.17;4.37;;;;;;;16.12;51.62;101489.95;1875472;75;21051;-90
2023/03/24 09:23:50;;;;;;;9.30;3.70;;;;;;;16.01;51.48;101492.30;1844057;76;21192;-41
2023/03/24 09:26:18;;;;;;;7.80;4.75;;;;;;;16.10;51.49;101501.14;1873080;75;21007;-41
2023/03/24 09:28:47;;;;;;;9.73;4.95;;;;;;;16.19;51.68;101495.36;1926275;74;21148;-41
2023/03/24 09:31:16;;;;;;;11.18;3.10;;;;;;;16.53;50.95;101488.30;1900962;74;21066;-37
2023/03/24 09:33:44;;;;;;;11.43;4.05;;;;;;;16.98;50.37;101482.82;1894231;76;21020;-37
2023/03/24 09:36:13;;;;;;;9.58;4.28;;;;;;;17.60;49.46;101476.77;1894137;76;21050;-38
2023/03/24 09:38:42;;;;;;;9.30;4.17;;;;;;;17.84;49.26;101486.97;1894202;76;21686;-39
2023/03/24 09:41:22;;;;;;;11.88;6.62;;;;;;;17.85;48.88;101474.05;1894296;76;21022;-39
2023/03/24 09:44:06;;;;;;;16.97;5.70;;;;;;;17.72;47.97;101497.39;1893820;76;21170;-37
2023/03/24 09:46:43;;;;;;;8.73;3.80;;;;;;;18.09;48.58;101479.30;1893811;76;21038;-38
2023/03/24 09:49:15;;;;;;;9.68;4.10;;;;;;;18.43;47.78;101480.42;1892628;76;21093;-37
2023/03/24 09:51:46;;;;;;;11.68;4.75;;;;;;;18.68;47.35;101483.77;1893349;76;21014;-38
2023/03/24 09:54:21;;;;;;;9.48;4.80;;;;;;;18.88;47.10;101482.09;1894295;76;21046;-38
2023/03/24 09:56:51;;;;;;;10.63;4.45;;;;;;;18.91;46.69;101479.73;1885747;74;21085;-38
2023/03/24 09:59:21;;;;;;;13.40;4.83;;;;;;;19.20;46.50;101487.23;1894321;76;21590;-38
2023/03/24 10:01:51;;;;;;;7.50;3.20;;;;;;;19.18;46.56;101473.13;1894251;76;21508;-38
2023/03/24 10:04:25;;;;;;;9.48;4.58;;;;;;;19.13;45.84;101467.22;1894473;76;21469;-38
2023/03/24 10:07:03;;;;;;;10.75;4.83;;;;;;;18.98;45.84;101473.05;1894255;76;21469;-38
2023/03/24 10:09:35;;;;;;;10.63;5.05;;;;;;;19.06;45.50;101471.23;1892723;76;21649;-38
2023/03/24 10:12:18;;;;;;;12.82;5.17;;;;;;;19.38;44.90;101471.83;1894238;76;21120;-37
2023/03/24 10:14:54;;;;;;;;;;;;;;;19.46;44.89;101464.69;1897090;76;21042;-36
2023/03/24 10:17:50;;;;;;;8.55;4.15;;;;;;;19.68;44.21;101466.80;1894283;76;20116;-37
2023/03/24 10:20:21;;;;;;;12.88;6.20;;;;;;;19.45;44.56;101461.62;1894292;76;21050;-37
2023/03/24 10:23:09;;;;;;;8.95;3.83;;;;;;;19.43;43.99;101447.52;1894246;76;21104;-38
2023/03/24 10:25:57;;;;;;;6.87;3.83;;;;;;;19.21;44.61;101450.23;1894304;76;21461;-39
2023/03/24 10:28:51;;;;;;;11.50;4.62;;;;;;;19.13;44.79;101445.87;1891586;76;21842;-38
2023/03/24 10:31:22;;;;;;;9.28;4.62;;;;;;;18.93;44.95;101458.29;1891300;76;21054;-38
2023/03/24 10:33:51;;;;;;;12.50;4.62;;;;;;;18.39;45.70;101451.76;1889691;76;21078;-38
2023/03/24 10:36:22;;;;;;;9.10;4.37;;;;;;;18.40;46.23;101457.45;1891141;76;21120;-38
2023/03/24 10:38:50;;;;;;;10.40;6.45;;;;;;;19.06;45.65;101453.88;1891052;76;21104;-38
2023/03/24 10:41:22;;;;;;;11.18;3.62;;;;;;;19.27;44.42;101444.52;1891155;76;21054;-38
2023/03/24 10:43:52;;;;;;;10.72;4.85;;;;;;;19.62;44.43;101445.36;1891161;75;21042;-37
2023/03/24 10:46:24;;;;;;;8.63;4.50;;;;;;;19.82;43.61;101429.34;1891256;76;21147;-38
2023/03/24 10:49:10;;;;;;;17.20;5.00;;;;;;;20.01;42.94;101442.34;1889365;76;21132;-37
2023/03/24 10:51:41;;;;;;;10.45;3.47;;;;;;;19.95;42.58;101438.73;1890939;75;21034;-38
2023/03/24 10:54:15;;;;;;;8.20;3.90;;;;;;;19.71;42.66;101444.36;1890943;76;21489;-38
2023/03/24 10:57:05;;;;;;;14.15;4.42;;;;;;;19.08;43.50;101437.30;1891203;76;21104;-37
2023/03/24 10:59:40;;;;;;;9.65;3.70;;;;;;;18.41;44.52;101444.52;1864124;76;21055;-38
2023/03/24 11:02:17;;;;;;;8.20;3.27;;;;;;;17.90;45.47;101443.53;1878879;75;21014;-39
2023/03/24 11:05:04;;;;;;;8.88;4.15;;;;;;;17.51;46.60;101452.00;1891335;76;21465;-38
2023/03/24 11:07:35;;;;;;;11.33;4.65;;;;;;;17.49;46.90;101443.25;1823252;78;21548;-38
2023/03/24 11:10:14;;;;;;;9.33;3.98;;;;;;;17.36;47.22;101447.92;1868768;76;21039;-38
2023/03/24 11:12:58;;;;;;;11.65;4.20;;;;;;;17.08;47.67;101451.72;1891115;76;21544;-38
2023/03/24 11:15:32;;;;;;;11.15;4.05;;;;;;;16.69;48.36;101452.91;1891100;76;21046;-38
2023/03/24 11:18:06;;;;;;;9.85;4.47;;;;;;;16.48;49.06;101459.76;1891180;75;21046;-37
2023/03/24 11:20:47;;;;;;;10.18;4.08;;;;;;;16.21;49.88;101451.41;1891078;76;21254;-38
2023/03/24 11:23:27;;;;;;;11.15;4.33;;;;;;;16.62;49.95;101453.73;1891198;76;21062;-37
2023/03/24 11:26:08;;;;;;;10.75;4.72;;;;;;;17.13;49.36;101450.55;1891235;76;21034;-37
2023/03/24 11:28:39;;;;;;;8.78;3.45;;;;;;;17.52;48.55;101443.05;1885480;76;21160;-38
2023/03/24 11:31:17;;;;;;;14.63;4.80;;;;;;;17.58;47.97;101440.06;1875439;76;21152;-37
2023/03/24 11:33:47;;;;;;;8.78;4.33;;;;;;;17.46;48.22;101427.44;1873795;76;21505;-38
2023/03/24 11:36:33;;;;;;;7.40;3.83;;;;;;;17.46;48.29;101432.77;1840415;76;21037;-38
2023/03/24 11:39:21;;;;;;;9.95;4.85;;;;;;;17.31;48.20;101432.67;1829464;78;21085;-40
2023/03/24 11:42:18;;;;;;;9.30;4.17;;;;;;;16.92;48.55;101435.28;1871036;76;21011;-38
2023/03/24 11:44:50;;;;;;;9.55;3.72;;;;;;;16.67;49.14;101440.17;1874909;76;21082;-37
2023/03/24 11:47:24;;;;;;;11.45;4.25;;;;;;;16.31;49.56;101441.19;1875382;76;21563;-40
2023/03/24 11:49:59;;;;;;;7.72;5.00;;;;;;;15.87;50.25;101445.64;1875427;76;21575;-37
2023/03/24 11:52:31;;;;;;;12.63;3.80;;;;;;;15.73;50.74;101447.16;1868163;75;21042;-37
2023/03/24 11:54:59;;;;;;;10.63;3.87;;;;;;;15.62;51.16;101446.36;1856680;76;21112;-37